Time;durP1;ratioP1;P1;durP2;ratioP2;P2;SDS_P1;SDS_P2;PMS_P1;PMS_P2;Temp;Humidity;BMP_temperature;BMP_pressure;BME280_temperature;BME280_humidity;BME280_pressure;Samples;Min_cycle;Max_cycle;Signal;HPM_P1;HPM_P2
2021/03/28 00:01:02;;;;;;;16.15;3.67;;;5.00;96.70;;;;;;5088643;28;20123;-67
2021/03/28 00:03:36;;;;;;;21.65;3.67;;;5.00;96.70;;;;;;5089767;28;20028;-67
2021/03/28 00:06:36;;;;;;;22.45;3.58;;;5.10;97.00;;;;;;5087965;28;20047;-67
2021/03/28 00:09:27;;;;;;;25.45;4.40;;;5.00;96.80;;;;;;5088364;28;20493;-67
2021/03/28 00:12:06;;;;;;;18.90;3.60;;;5.10;97.00;;;;;;5078204;28;20048;-67
2021/03/28 00:14:49;;;;;;;18.42;3.60;;;5.10;97.10;;;;;;5090083;28;20075;-67
2021/03/28 00:17:20;;;;;;;17.20;3.60;;;5.10;97.30;;;;;;5088341;28;20040;-67
2021/03/28 00:19:54;;;;;;;16.52;3.22;;;5.00;97.10;;;;;;5088785;28;20028;-67
2021/03/28 00:22:27;;;;;;;13.48;3.22;;;5.10;97.20;;;;;;5086742;28;20040;-67
2021/03/28 00:25:13;;;;;;;24.27;4.63;;;5.10;97.30;;;;;;5087822;28;20097;-67
2021/03/28 00:27:44;;;;;;;20.73;4.65;;;5.10;97.40;;;;;;5087802;28;20055;-67
2021/03/28 00:30:33;;;;;;;19.05;4.63;;;5.00;97.40;;;;;;5090325;28;20521;-67
2021/03/28 00:33:14;;;;;;;16.10;3.03;;;5.10;97.60;;;;;;5086204;28;20715;-67
2021/03/28 00:35:48;;;;;;;15.43;3.72;;;5.10;97.70;;;;;;5088878;28;20036;-67
2021/03/28 00:38:19;;;;;;;21.67;4.80;;;5.10;97.60;;;;;;5086600;28;20036;-67
2021/03/28 00:41:05;;;;;;;19.85;4.45;;;5.10;97.80;;;;;;5088550;28;20043;-67
2021/03/28 00:43:49;;;;;;;20.70;3.33;;;5.10;97.90;;;;;;5088881;28;20066;-67
2021/03/28 00:46:44;;;;;;;16.80;3.83;;;5.10;97.90;;;;;;5089293;28;20044;-67
2021/03/28 00:49:33;;;;;;;20.48;4.22;;;5.10;98.10;;;;;;5089975;28;20048;-67
2021/03/28 00:52:05;;;;;;;21.60;4.68;;;5.10;98.20;;;;;;5088652;28;20735;-67
2021/03/28 00:54:51;;;;;;;14.65;4.20;;;5.10;98.30;;;;;;5090542;28;20035;-67
2021/03/28 00:57:31;;;;;;;18.83;4.05;;;5.10;98.50;;;;;;5088659;28;20550;-67
2021/03/28 01:00:20;;;;;;;20.27;4.25;;;5.10;98.60;;;;;;5089528;28;20033;-67
2021/03/28 01:03:03;;;;;;;25.98;4.00;;;5.20;98.80;;;;;;5082778;28;20041;-67
2021/03/28 01:05:42;;;;;;;21.50;3.95;;;5.20;98.70;;;;;;5087131;28;20089;-67
2021/03/28 01:08:17;;;;;;;24.67;4.35;;;5.20;98.90;;;;;;5087891;28;20040;-67
2021/03/28 01:11:09;;;;;;;22.55;3.65;;;5.20;98.80;;;;;;5086677;28;20047;-67
2021/03/28 01:13:53;;;;;;;18.33;4.30;;;5.20;98.90;;;;;;5087945;28;20035;-67
2021/03/28 01:16:56;;;;;;;24.20;4.97;;;5.20;99.00;;;;;;5088129;28;20071;-67
2021/03/28 01:19:28;;;;;;;23.52;4.00;;;5.20;99.00;;;;;;5089187;28;20032;-67
2021/03/28 01:22:37;;;;;;;25.30;4.15;;;5.30;99.20;;;;;;5087516;28;20639;-67
2021/03/28 01:25:09;;;;;;;18.67;4.13;;;5.20;99.10;;;;;;5088970;28;20036;-67
2021/03/28 01:27:44;;;;;;;26.13;5.20;;;5.20;99.10;;;;;;5087603;28;20099;-67
2021/03/28 01:30:16;;;;;;;17.17;3.72;;;5.20;99.30;;;;;;5085908;28;20040;-67
2021/03/28 01:32:56;;;;;;;21.70;3.63;;;5.20;99.10;;;;;;5089544;28;20047;-67
2021/03/28 01:35:27;;;;;;;27.67;4.35;;;5.30;99.10;;;;;;5093898;28;20036;-67
2021/03/28 01:38:28;;;;;;;25.75;4.93;;;5.20;99.20;;;;;;5093051;28;20032;-67
2021/03/28 01:41:11;;;;;;;21.08;5.90;;;5.30;99.20;;;;;;5092434;28;20087;-67
2021/03/28 01:44:06;;;;;;;17.50;3.75;;;5.30;99.10;;;;;;5092347;28;20040;-67
2021/03/28 01:46:52;;;;;;;22.92;4.20;;;5.30;99.30;;;;;;5092658;28;20036;-67
2021/03/28 01:49:41;;;;;;;;;;;5.30;99.10;;;;;;5090662;28;20113;-67
2021/03/28 01:52:19;;;;;;;19.75;4.07;;;5.30;99.30;;;;;;5090917;28;19916;-67
2021/03/28 01:54:59;;;;;;;24.40;4.50;;;5.30;99.30;;;;;;5090147;28;20548;-67
2021/03/28 01:57:37;;;;;;;20.40;3.38;;;5.30;99.10;;;;;;5093330;28;20123;-67
2021/03/28 02:00:24;;;;;;;22.88;4.38;;;5.30;99.20;;;;;;5092730;28;20431;-67
2021/03/28 02:02:57;;;;;;;27.08;4.30;;;5.30;99.00;;;;;;5087321;28;20043;-67
2021/03/28 02:05:45;;;;;;;14.10;3.17;;;5.30;99.30;;;;;;5090850;28;20617;-67
2021/03/28 02:08:18;;;;;;;18.55;3.60;;;5.30;99.10;;;;;;5088694;28;20032;-67
2021/03/28 02:10:56;;;;;;;19.42;3.97;;;5.30;99.20;;;;;;5093363;28;20040;-67
2021/03/28 02:13:40;;;;;;;19.90;3.50;;;5.20;99.20;;;;;;5090004;28;20054;-67
2021/03/28 02:16:32;;;;;;;21.70;3.80;;;5.30;99.20;;;;;;5089119;28;20150;-67
2021/03/28 02:19:22;;;;;;;21.23;4.35;;;5.20;99.30;;;;;;5088661;28;20043;-67
2021/03/28 02:22:12;;;;;;;23.40;4.10;;;5.20;99.20;;;;;;5084108;28;20064;-67
2021/03/28 02:24:48;;;;;;;22.80;4.00;;;5.20;99.20;;;;;;5089557;28;20036;-67
2021/03/28 02:27:48;;;;;;;16.92;3.90;;;5.20;99.40;;;;;;5087058;28;20032;-67
2021/03/28 02:30:14;;;;;;;22.15;5.10;;;5.20;99.50;;;;;;5084986;28;20033;-67
2021/03/28 02:32:58;;;;;;;19.55;4.90;;;5.30;99.50;;;;;;5085756;28;20059;-67
2021/03/28 02:35:51;;;;;;;23.77;3.65;;;5.30;99.50;;;;;;5087719;28;20028;-67
2021/03/28 02:38:35;;;;;;;15.60;3.70;;;5.30;99.50;;;;;;5085796;28;20119;-67
2021/03/28 02:41:22;;;;;;;15.13;3.38;;;5.30;99.50;;;;;;5086366;28;20119;-67
2021/03/28 02:43:49;;;;;;;17.08;5.07;;;5.30;99.60;;;;;;5080735;28;20032;-67
2021/03/28 02:46:45;;;;;;;21.85;5.07;;;5.50;99.60;;;;;;5086887;28;20033;-67
2021/03/28 02:49:38;;;;;;;23.33;3.97;;;5.40;99.50;;;;;;5087594;28;20036;-67
2021/03/28 02:52:33;;;;;;;18.15;3.90;;;5.40;99.90;;;;;;5086868;28;20068;-67
2021/03/28 02:55:26;;;;;;;18.70;4.03;;;5.50;99.70;;;;;;5088242;28;20044;-67
2021/03/28 02:58:07;;;;;;;24.95;4.25;;;5.50;99.70;;;;;;5088478;28;20123;-67
2021/03/28 03:01:00;;;;;;;28.00;4.90;;;5.60;99.60;;;;;;5084825;28;20528;-67
2021/03/28 03:03:58;;;;;;;20.10;3.78;;;5.60;99.60;;;;;;5084288;28;20473;-67
2021/03/28 03:06:27;;;;;;;20.42;4.75;;;5.50;99.60;;;;;;5089371;28;20393;-67
2021/03/28 03:09:13;;;;;;;22.55;3.72;;;5.60;99.60;;;;;;5091520;28;20166;-67
2021/03/28 03:11:54;;;;;;;20.65;3.42;;;5.60;99.50;;;;;;5089711;28;20040;-67
2021/03/28 03:14:37;;;;;;;18.73;4.10;;;5.60;99.60;;;;;;5090506;28;20039;-67
2021/03/28 03:17:41;;;;;;;18.95;3.78;;;5.60;99.60;;;;;;5089908;28;20046;-67
2021/03/28 03:20:44;;;;;;;14.68;2.88;;;5.60;99.70;;;;;;5091975;28;20030;-67
2021/03/28 03:23:40;;;;;;;21.65;4.13;;;5.60;99.60;;;;;;5090414;28;20040;-67
2021/03/28 03:26:12;;;;;;;17.60;4.35;;;5.60;99.70;;;;;;5091434;28;20024;-67
2021/03/28 03:29:15;;;;;;;21.13;3.65;;;5.60;99.60;;;;;;5090676;28;20055;-67
2021/03/28 03:32:10;;;;;;;17.25;4.13;;;5.60;99.80;;;;;;5088816;28;20040;-67
2021/03/28 03:34:50;;;;;;;21.92;3.55;;;5.70;99.70;;;;;;5090643;28;20047;-67
2021/03/28 03:37:57;;;;;;;21.90;3.83;;;5.70;99.80;;;;;;5090392;28;20052;-67
2021/03/28 03:40:37;;;;;;;16.50;3.53;;;5.80;99.90;;;;;;5091171;28;20044;-67
2021/03/28 03:43:27;;;;;;;18.15;4.28;;;5.80;99.80;;;;;;5088464;28;20036;-67
2021/03/28 03:46:02;;;;;;;17.05;4.00;;;5.80;99.90;;;;;;5088458;28;20101;-67
2021/03/28 03:49:01;;;;;;;17.30;3.10;;;5.80;99.90;;;;;;5090659;28;20083;-67
2021/03/28 03:52:12;;;;;;;16.90;3.50;;;5.80;99.90;;;;;;5090472;28;20047;-67
2021/03/28 03:54:54;;;;;;;21.35;4.00;;;5.90;99.90;;;;;;5091047;28;20175;-67
2021/03/28 03:57:40;;;;;;;13.43;3.72;;;5.90;99.90;;;;;;5089675;28;20024;-67
2021/03/28 04:00:19;;;;;;;22.30;4.35;;;5.90;99.90;;;;;;5089971;28;20038;-67
2021/03/28 04:03:03;;;;;;;20.48;3.53;;;5.90;99.90;;;;;;5088585;28;20044;-67
2021/03/28 04:05:47;;;;;;;20.08;4.15;;;5.90;99.90;;;;;;5090439;28;20405;-67
2021/03/28 04:08:49;;;;;;;19.58;3.53;;;5.90;99.90;;;;;;5090238;28;20040;-67
2021/03/28 04:11:24;;;;;;;17.73;3.45;;;6.00;99.90;;;;;;5086918;28;20039;-67
2021/03/28 04:14:11;;;;;;;16.23;3.65;;;5.90;99.90;;;;;;5087953;28;20082;-67
2021/03/28 04:16:55;;;;;;;23.33;5.05;;;5.90;99.90;;;;;;5090686;28;20159;-67
2021/03/28 04:19:47;;;;;;;20.90;3.80;;;5.90;99.90;;;;;;5089416;28;20386;-67
2021/03/28 04:22:50;;;;;;;21.52;4.15;;;5.90;99.90;;;;;;5087333;28;20036;-67
2021/03/28 04:25:22;;;;;;;18.48;3.47;;;5.90;99.90;;;;;;5089431;28;20036;-67
2021/03/28 04:28:20;;;;;;;20.75;5.85;;;5.90;99.90;;;;;;5085377;28;20085;-67
2021/03/28 04:30:55;;;;;;;15.55;4.88;;;5.90;99.90;;;;;;5066233;28;20036;-67
2021/03/28 04:33:32;;;;;;;17.33;3.97;;;5.80;99.90;;;;;;5088174;28;20035;-67
2021/03/28 04:36:11;;;;;;;19.35;4.28;;;5.80;99.90;;;;;;5087526;28;20131;-67
2021/03/28 04:39:15;;;;;;;24.73;4.38;;;5.80;99.90;;;;;;5088009;28;20111;-67
2021/03/28 04:41:53;;;;;;;20.35;3.40;;;5.80;99.90;;;;;;5088357;28;20497;-67
2021/03/28 04:44:56;;;;;;;20.17;4.25;;;5.80;99.90;;;;;;5089549;28;20047;-67
2021/03/28 04:47:46;;;;;;;18.65;4.03;;;5.70;99.90;;;;;;5088519;28;20076;-67
2021/03/28 04:50:33;;;;;;;27.23;6.00;;;5.80;99.90;;;;;;5088505;28;20047;-67
2021/03/28 04:53:37;;;;;;;18.30;3.60;;;5.70;99.90;;;;;;5087207;28;20050;-67
2021/03/28 04:56:24;;;;;;;14.90;4.38;;;5.70;99.90;;;;;;5088963;28;20039;-67
2021/03/28 04:59:27;;;;;;;19.67;4.20;;;5.80;99.90;;;;;;5087162;28;20474;-67
2021/03/28 05:02:23;;;;;;;16.85;4.70;;;5.70;99.90;;;;;;5079560;28;20123;-67
2021/03/28 05:04:57;;;;;;;19.15;4.07;;;5.70;99.90;;;;;;5084760;28;20036;-67
2021/03/28 05:07:43;;;;;;;18.27;4.25;;;5.70;99.90;;;;;;5084833;28;20052;-67
2021/03/28 05:10:30;;;;;;;19.93;4.00;;;5.70;99.90;;;;;;5085914;28;20076;-67
2021/03/28 05:13:20;;;;;;;23.50;3.85;;;5.70;99.90;;;;;;5084323;28;20630;-67
2021/03/28 05:15:58;;;;;;;16.05;4.53;;;5.70;99.90;;;;;;5086937;28;20032;-68
2021/03/28 05:18:47;;;;;;;19.80;4.32;;;5.60;99.90;;;;;;5088124;28;20413;-67
2021/03/28 05:21:28;;;;;;;21.50;4.38;;;5.60;99.90;;;;;;5085408;28;20039;-67
2021/03/28 05:24:32;;;;;;;21.42;3.95;;;5.40;99.90;;;;;;5084260;28;20040;-67
2021/03/28 05:27:21;;;;;;;18.98;4.38;;;5.60;99.90;;;;;;5087145;28;20608;-67
2021/03/28 05:30:19;;;;;;;21.00;3.63;;;5.60;99.90;;;;;;5083942;28;20078;-67
2021/03/28 05:33:12;;;;;;;18.75;4.25;;;5.60;99.90;;;;;;5086609;28;20048;-67
2021/03/28 05:36:11;;;;;;;16.92;4.38;;;5.60;99.90;;;;;;5089012;28;20040;-67
2021/03/28 05:38:55;;;;;;;17.60;4.38;;;5.60;99.90;;;;;;5084017;28;20044;-67
2021/03/28 05:41:52;;;;;;;21.48;4.40;;;5.60;99.90;;;;;;5088120;28;20482;-67
2021/03/28 05:44:31;;;;;;;;;;;5.70;99.90;;;;;;5089801;28;20055;-67
2021/03/28 05:47:24;;;;;;;19.67;3.85;;;5.80;99.90;;;;;;5087896;28;20006;-67
2021/03/28 05:50:15;;;;;;;15.73;3.78;;;5.80;99.90;;;;;;5089549;28;20539;-67
2021/03/28 05:53:18;;;;;;;16.45;4.25;;;5.80;99.90;;;;;;5087704;28;20044;-67
2021/03/28 05:56:02;;;;;;;20.58;4.53;;;5.90;99.90;;;;;;5091374;28;20425;-67
2021/03/28 05:58:31;;;;;;;12.00;3.78;;;5.90;99.90;;;;;;5087919;28;20119;-67
2021/03/28 06:01:18;;;;;;;20.15;3.95;;;6.00;99.90;;;;;;5088611;28;20040;-67
2021/03/28 06:04:11;;;;;;;12.93;4.05;;;6.20;99.90;;;;;;5085071;28;20073;-67
2021/03/28 06:07:14;;;;;;;14.93;3.28;;;6.50;99.70;;;;;;5089673;28;20047;-67
2021/03/28 06:10:09;;;;;;;15.10;3.50;;;6.90;99.10;;;;;;5087129;28;20445;-67
2021/03/28 06:13:06;;;;;;;13.27;3.10;;;7.40;98.20;;;;;;5085776;28;20116;-67
2021/03/28 06:16:05;;;;;;;18.95;4.30;;;7.60;97.60;;;;;;5083351;28;20509;-67
2021/03/28 06:18:50;;;;;;;16.20;3.53;;;7.50;97.40;;;;;;5092185;28;20051;-67
2021/03/28 06:21:37;;;;;;;14.48;3.38;;;7.40;97.60;;;;;;5091923;28;20063;-67
2021/03/28 06:24:48;;;;;;;13.55;3.45;;;7.30;97.80;;;;;;5090439;28;20046;-67
2021/03/28 06:27:19;;;;;;;17.45;3.75;;;7.20;97.90;;;;;;5059482;28;20048;-67
2021/03/28 06:30:21;;;;;;;10.52;2.97;;;7.20;98.10;;;;;;5091589;28;20043;-67
2021/03/28 06:33:05;;;;;;;13.88;2.72;;;7.30;98.10;;;;;;5084966;28;20044;-67
2021/03/28 06:35:58;;;;;;;10.20;2.72;;;7.40;98.30;;;;;;5090514;28;20036;-67
2021/03/28 06:38:42;;;;;;;13.82;2.72;;;7.70;97.90;;;;;;5089804;28;20512;-67
2021/03/28 06:41:45;;;;;;;14.45;2.67;;;8.20;97.40;;;;;;5092299;28;20040;-67
2021/03/28 06:44:28;;;;;;;13.43;2.83;;;8.30;96.80;;;;;;5091858;28;20501;-68
2021/03/28 06:47:40;;;;;;;11.05;2.25;;;8.30;96.40;;;;;;5089229;28;20096;-68
2021/03/28 06:51:00;;;;;;;14.05;2.85;;;8.30;96.40;;;;;;5092036;28;20117;-67
2021/03/28 06:54:07;;;;;;;11.05;1.90;;;8.20;96.40;;;;;;5090423;28;20166;-68
2021/03/28 06:56:35;;;;;;;9.45;2.45;;;8.20;96.60;;;;;;5076684;28;20474;-67
2021/03/28 06:59:23;;;;;;;10.52;2.42;;;8.20;96.40;;;;;;5091359;28;20043;-67
2021/03/28 07:02:03;;;;;;;12.05;2.38;;;8.40;96.50;;;;;;5085874;28;20095;-67
2021/03/28 07:04:48;;;;;;;13.75;2.58;;;8.50;96.20;;;;;;5092206;28;20044;-67
2021/03/28 07:07:38;;;;;;;10.70;2.40;;;8.50;96.00;;;;;;5091552;28;20082;-68
2021/03/28 07:10:30;;;;;;;9.43;2.05;;;8.50;96.10;;;;;;5090629;28;20051;-67
2021/03/28 07:13:26;;;;;;;15.77;2.20;;;8.50;96.00;;;;;;5090931;28;20452;-68
2021/03/28 07:16:13;;;;;;;8.57;2.00;;;8.40;96.10;;;;;;5086678;28;20036;-68
2021/03/28 07:18:57;;;;;;;11.50;2.60;;;8.40;96.50;;;;;;5090883;28;20044;-68
2021/03/28 07:22:06;;;;;;;13.15;2.67;;;8.40;96.50;;;;;;5091181;28;20058;-68
2021/03/28 07:24:56;;;;;;;14.15;2.75;;;8.40;96.50;;;;;;5091179;28;20142;-67
2021/03/28 07:28:00;;;;;;;8.82;1.88;;;8.40;96.50;;;;;;5090116;28;20063;-74
2021/03/28 07:30:33;;;;;;;11.65;2.38;;;8.50;96.50;;;;;;5090896;28;20040;-70
2021/03/28 07:33:33;;;;;;;10.55;2.33;;;8.50;96.30;;;;;;5089495;28;20046;-71
2021/03/28 07:36:30;;;;;;;11.45;2.63;;;8.60;96.20;;;;;;5090812;28;20032;-70
2021/03/28 07:39:11;;;;;;;11.30;2.80;;;8.60;96.40;;;;;;5088174;28;20118;-70
2021/03/28 07:41:58;;;;;;;11.38;2.47;;;8.60;96.40;;;;;;5090329;28;20358;-70
2021/03/28 07:44:53;;;;;;;10.52;2.05;;;8.70;96.50;;;;;;5091362;28;20066;-70
2021/03/28 07:48:00;;;;;;;13.95;2.08;;;8.70;96.30;;;;;;5089110;28;20038;-70
2021/03/28 07:50:47;;;;;;;11.40;2.72;;;8.70;96.20;;;;;;5091712;28;20107;-70
2021/03/28 07:53:37;;;;;;;8.32;2.00;;;8.80;96.00;;;;;;5087220;28;20716;-70
2021/03/28 07:56:14;;;;;;;14.63;2.53;;;8.90;96.00;;;;;;5089452;28;20078;-70
2021/03/28 07:58:47;;;;;;;8.18;2.38;;;9.00;95.70;;;;;;5087343;28;20116;-70
2021/03/28 08:01:31;;;;;;;10.15;2.00;;;9.00;95.80;;;;;;5089109;28;20059;-70
2021/03/28 08:04:20;;;;;;;16.52;2.22;;;9.00;96.00;;;;;;5089548;28;20666;-70
2021/03/28 08:07:16;;;;;;;14.13;2.13;;;9.20;96.00;;;;;;5087449;28;20040;-70
2021/03/28 08:09:55;;;;;;;10.13;1.90;;;9.40;95.60;;;;;;5087588;28;20040;-70
2021/03/28 08:12:39;;;;;;;12.65;2.50;;;9.70;95.30;;;;;;5088548;28;20054;-70
2021/03/28 08:15:39;;;;;;;10.73;1.65;;;9.90;94.60;;;;;;5089300;28;20040;-70
2021/03/28 08:18:13;;;;;;;11.57;1.60;;;9.90;94.20;;;;;;5088901;28;20486;-70
2021/03/28 08:21:08;;;;;;;8.88;2.03;;;10.00;94.40;;;;;;5087533;28;20036;-70
2021/03/28 08:24:04;;;;;;;10.43;2.28;;;10.10;94.00;;;;;;5089121;28;20044;-70
2021/03/28 08:26:52;;;;;;;11.93;2.38;;;10.10;94.40;;;;;;5089506;28;20040;-70
2021/03/28 08:29:44;;;;;;;6.30;1.67;;;10.10;94.10;;;;;;5090003;28;20036;-70
2021/03/28 08:32:15;;;;;;;9.63;2.10;;;10.10;93.70;;;;;;5085938;28;20055;-70
2021/03/28 08:34:50;;;;;;;13.15;2.03;;;10.10;93.70;;;;;;5085658;28;20043;-70
2021/03/28 08:37:43;;;;;;;7.25;1.23;;;10.10;93.70;;;;;;5089270;28;20074;-70
2021/03/28 08:40:31;;;;;;;11.82;2.00;;;10.20;93.20;;;;;;5084558;28;20513;-70
2021/03/28 08:43:23;;;;;;;11.88;1.98;;;10.20;93.30;;;;;;5084151;28;20119;-70
2021/03/28 08:46:28;;;;;;;12.10;1.98;;;10.30;93.00;;;;;;5085235;28;20040;-70
2021/03/28 08:49:00;;;;;;;7.43;1.70;;;10.40;92.80;;;;;;5082812;28;20066;-70
2021/03/28 08:51:48;;;;;;;6.97;1.45;;;10.40;92.20;;;;;;5083381;28;20032;-70
2021/03/28 08:54:44;;;;;;;9.57;1.88;;;10.50;91.70;;;;;;5083574;28;20040;-70
2021/03/28 08:57:41;;;;;;;6.28;1.30;;;10.70;91.70;;;;;;5086185;28;20040;-70
2021/03/28 09:00:48;;;;;;;6.93;1.65;;;11.00;90.80;;;;;;5082453;28;20093;-70
2021/03/28 09:03:33;;;;;;;;;;;11.40;90.70;;;;;;5072905;28;20142;-70
2021/03/28 09:06:10;;;;;;;10.80;2.03;;;11.60;89.80;;;;;;5081267;28;19945;-70
2021/03/28 09:08:44;;;;;;;8.13;1.80;;;11.70;89.70;;;;;;5085359;28;20277;-70
2021/03/28 09:11:36;;;;;;;11.75;2.42;;;11.80;87.80;;;;;;5083664;28;20104;-70
2021/03/28 09:14:30;;;;;;;7.35;1.52;;;11.80;86.80;;;;;;5086077;28;20497;-71
2021/03/28 09:17:13;;;;;;;23.88;1.85;;;11.70;85.30;;;;;;5086071;28;20129;-72
2021/03/28 09:20:13;;;;;;;6.10;1.40;;;11.60;86.40;;;;;;5083402;28;20041;-72
2021/03/28 09:22:47;;;;;;;7.93;1.80;;;11.70;85.00;;;;;;5087485;28;20048;-72
2021/03/28 09:25:23;;;;;;;9.05;1.80;;;11.90;85.70;;;;;;5088731;28;20103;-72
2021/03/28 09:28:00;;;;;;;8.27;1.52;;;12.10;86.30;;;;;;5089613;28;20044;-73
2021/03/28 09:30:39;;;;;;;12.05;2.40;;;12.30;85.10;;;;;;5089224;28;20043;-73
2021/03/28 09:33:29;;;;;;;7.82;1.58;;;12.40;83.20;;;;;;5087043;28;20036;-72
2021/03/28 09:36:08;;;;;;;10.85;2.00;;;12.50;80.60;;;;;;5088033;28;20040;-73
2021/03/28 09:38:40;;;;;;;10.35;1.90;;;12.50;79.80;;;;;;5085356;28;20040;-73
2021/03/28 09:41:09;;;;;;;11.40;1.98;;;12.60;80.30;;;;;;5088175;28;20071;-73
2021/03/28 09:43:58;;;;;;;9.93;1.80;;;12.70;82.50;;;;;;5087814;28;20031;-73
2021/03/28 09:46:52;;;;;;;10.32;1.80;;;12.70;80.10;;;;;;5088165;28;20055;-73
2021/03/28 09:49:48;;;;;;;10.55;1.70;;;12.70;80.80;;;;;;5088031;28;20568;-73
2021/03/28 09:52:40;;;;;;;6.35;1.40;;;12.60;81.50;;;;;;5073102;28;20036;-73
2021/03/28 09:55:29;;;;;;;9.32;1.48;;;12.40;79.20;;;;;;5087596;28;20075;-73
2021/03/28 09:58:37;;;;;;;7.32;1.48;;;12.30;81.00;;;;;;5090458;28;20442;-73
2021/03/28 10:01:41;;;;;;;6.32;1.50;;;12.40;80.00;;;;;;5091003;28;20071;-73
2021/03/28 10:04:26;;;;;;;8.00;1.88;;;12.20;79.70;;;;;;5089257;28;20111;-73
2021/03/28 10:07:01;;;;;;;8.52;1.85;;;12.00;84.90;;;;;;5089130;28;20036;-73
2021/03/28 10:09:38;;;;;;;12.45;2.25;;;11.90;85.50;;;;;;5091443;28;20032;-73
2021/03/28 10:12:31;;;;;;;6.85;2.05;;;11.70;84.00;;;;;;5090672;28;20036;-73
2021/03/28 10:15:00;;;;;;;8.70;2.08;;;11.70;84.60;;;;;;5086763;28;20159;-73
2021/03/28 10:17:46;;;;;;;9.60;2.33;;;11.70;86.10;;;;;;5091243;28;20044;-73
2021/03/28 10:20:35;;;;;;;5.32;1.75;;;11.60;86.00;;;;;;5090460;28;20032;-73
2021/03/28 10:23:39;;;;;;;13.63;2.33;;;11.60;87.70;;;;;;5087186;28;20028;-73
2021/03/28 10:26:13;;;;;;;9.50;2.05;;;11.70;88.70;;;;;;5089879;28;20067;-73
2021/03/28 10:28:46;;;;;;;7.70;2.00;;;11.70;86.70;;;;;;5089421;28;20134;-73
2021/03/28 10:31:23;;;;;;;9.30;1.77;;;11.70;88.50;;;;;;5090235;28;20036;-75
2021/03/28 10:33:58;;;;;;;6.18;1.80;;;11.80;88.20;;;;;;5095477;28;20412;-75
2021/03/28 10:36:49;;;;;;;7.80;1.65;;;11.80;89.80;;;;;;5088866;28;20089;-75
2021/03/28 10:40:07;;;;;;;8.05;2.10;;;11.50;89.70;;;;;;5090899;28;20040;-75
2021/03/28 10:42:54;;;;;;;7.10;2.10;;;11.30;90.40;;;;;;5051489;28;20032;-76
2021/03/28 10:45:39;;;;;;;11.00;2.30;;;11.20;91.50;;;;;;5091708;28;20544;-76
2021/03/28 10:48:32;;;;;;;10.80;2.05;;;11.00;92.30;;;;;;5090364;28;20036;-74
2021/03/28 10:51:15;;;;;;;8.55;2.15;;;10.90;92.30;;;;;;5089297;28;20473;-74
2021/03/28 10:54:23;;;;;;;12.65;2.97;;;10.80;92.70;;;;;;5088500;28;20036;-75
2021/03/28 10:57:08;;;;;;;16.45;3.10;;;10.70;93.60;;;;;;5083667;28;20530;-75
2021/03/28 10:59:57;;;;;;;10.68;2.10;;;10.60;93.90;;;;;;5086504;28;20029;-75
2021/03/28 11:02:57;;;;;;;10.07;2.85;;;10.60;93.70;;;;;;5084275;28;20040;-75
2021/03/28 11:05:54;;;;;;;8.80;2.17;;;10.60;94.40;;;;;;5091184;28;20048;-74
2021/03/28 11:08:53;;;;;;;11.25;2.78;;;10.60;94.00;;;;;;5091337;28;20071;-74
2021/03/28 11:11:39;;;;;;;9.50;2.35;;;10.70;94.10;;;;;;5109118;27;20070;-74
2021/03/28 11:14:52;;;;;;;6.40;1.95;;;10.70;95.00;;;;;;5091000;28;20111;-74
2021/03/28 11:17:53;;;;;;;14.73;3.70;;;10.70;94.30;;;;;;5075398;28;20055;-73
2021/03/28 11:20:32;;;;;;;12.20;2.88;;;10.60;94.80;;;;;;5089321;28;20187;-74
2021/03/28 11:23:26;;;;;;;9.70;2.25;;;10.60;94.60;;;;;;5091745;28;20051;-74
2021/03/28 11:26:13;;;;;;;9.75;2.08;;;10.60;94.00;;;;;;5090835;28;20040;-74
2021/03/28 11:28:51;;;;;;;9.07;2.22;;;10.50;95.10;;;;;;5084461;28;20120;-74
2021/03/28 11:31:26;;;;;;;11.05;2.15;;;10.50;94.70;;;;;;5090734;28;20039;-74
2021/03/28 11:33:58;;;;;;;9.60;1.87;;;10.50;94.70;;;;;;5087249;28;20040;-74
2021/03/28 11:36:30;;;;;;;8.75;1.92;;;10.40;94.80;;;;;;5104207;28;20294;-75
2021/03/28 11:39:14;;;;;;;9.90;2.42;;;10.40;95.10;;;;;;5091504;28;20404;-74
2021/03/28 11:41:49;;;;;;;11.43;2.35;;;10.40;95.50;;;;;;5088941;28;20101;-74
2021/03/28 11:44:36;;;;;;;9.45;2.67;;;10.40;95.30;;;;;;5090264;28;20040;-74
2021/03/28 11:47:25;;;;;;;9.30;2.05;;;10.30;96.20;;;;;;5075650;28;20048;-74
2021/03/28 11:50:10;;;;;;;8.75;2.85;;;10.30;96.40;;;;;;5088094;28;20032;-74
2021/03/28 11:52:44;;;;;;;11.32;2.38;;;10.20;96.10;;;;;;5089050;28;20111;-74
2021/03/28 11:55:25;;;;;;;12.38;2.20;;;10.20;96.20;;;;;;5116473;27;21802;-74
2021/03/28 11:58:12;;;;;;;9.45;2.13;;;10.10;96.50;;;;;;5087843;28;20027;-74
2021/03/28 12:00:41;;;;;;;11.60;2.40;;;10.20;96.20;;;;;;5103292;27;20036;-74
2021/03/28 12:03:37;;;;;;;10.77;2.22;;;10.20;96.80;;;;;;5088697;28;20036;-74
2021/03/28 12:06:16;;;;;;;12.32;2.17;;;10.10;96.60;;;;;;5088666;28;20498;-74
2021/03/28 12:08:45;;;;;;;14.27;3.25;;;10.10;96.90;;;;;;5088034;28;20040;-74
2021/03/28 12:11:38;;;;;;;13.48;2.80;;;10.00;97.50;;;;;;5088274;28;20385;-74
2021/03/28 12:14:19;;;;;;;7.45;2.50;;;10.00;97.90;;;;;;5090379;28;20051;-74
2021/03/28 12:17:10;;;;;;;11.32;3.10;;;10.00;97.80;;;;;;5087596;28;20029;-74
2021/03/28 12:20:01;;;;;;;15.73;3.17;;;9.90;98.00;;;;;;5090266;28;20040;-74
2021/03/28 12:22:42;;;;;;;14.95;3.67;;;9.90;98.20;;;;;;5089547;28;20121;-74
2021/03/28 12:25:14;;;;;;;15.15;4.00;;;9.90;98.90;;;;;;5085913;28;20954;-74
2021/03/28 12:27:54;;;;;;;15.43;3.80;;;9.90;98.80;;;;;;5087690;28;20447;-74
2021/03/28 12:30:29;;;;;;;9.35;2.72;;;9.90;98.90;;;;;;5089456;28;20044;-74
2021/03/28 12:33:22;;;;;;;13.70;3.60;;;9.90;99.20;;;;;;5089187;28;20119;-74
2021/03/28 12:36:09;;;;;;;18.15;3.33;;;9.90;99.20;;;;;;5084379;28;20569;-74
2021/03/28 12:38:52;;;;;;;15.00;3.58;;;9.90;98.60;;;;;;5090286;28;20034;-74
2021/03/28 12:41:31;;;;;;;12.85;2.72;;;9.90;98.70;;;;;;5088134;28;20039;-74
2021/03/28 12:44:06;;;;;;;13.40;3.42;;;9.90;98.90;;;;;;5089998;28;20036;-73
2021/03/28 12:46:59;;;;;;;11.20;2.87;;;9.90;99.00;;;;;;5090545;28;20116;-74
2021/03/28 12:49:41;;;;;;;10.98;3.20;;;9.90;99.10;;;;;;5094356;28;20035;-74
2021/03/28 12:52:12;;;;;;;13.00;3.00;;;9.90;98.90;;;;;;5088552;28;20043;-74
2021/03/28 12:54:51;;;;;;;13.18;2.90;;;9.80;99.30;;;;;;5090942;28;20059;-74
2021/03/28 12:57:32;;;;;;;13.77;3.40;;;9.80;99.10;;;;;;5089599;28;20039;-74
2021/03/28 13:00:16;;;;;;;12.98;2.83;;;9.80;99.30;;;;;;5093266;28;20058;-74
2021/03/28 13:02:43;;;;;;;15.25;3.40;;;9.90;98.80;;;;;;5087269;28;20044;-74
2021/03/28 13:05:31;;;;;;;12.48;2.97;;;9.80;98.90;;;;;;5092113;28;20040;-74
2021/03/28 13:08:16;;;;;;;16.13;3.30;;;9.90;99.10;;;;;;5088344;28;20028;-74
2021/03/28 13:10:43;;;;;;;11.05;3.22;;;9.90;98.70;;;;;;5090462;28;20042;-74
2021/03/28 13:13:15;;;;;;;16.40;3.13;;;10.00;98.70;;;;;;5088734;28;20050;-74
2021/03/28 13:15:45;;;;;;;12.90;3.08;;;10.00;98.80;;;;;;5091826;28;20533;-74
2021/03/28 13:18:23;;;;;;;16.88;3.33;;;10.00;99.00;;;;;;5089264;28;20036;-74
2021/03/28 13:21:17;;;;;;;17.42;3.28;;;10.00;98.20;;;;;;5090873;28;20063;-74
2021/03/28 13:23:46;;;;;;;10.10;2.22;;;10.00;98.10;;;;;;5089392;28;20044;-74
2021/03/28 13:26:16;;;;;;;13.82;3.00;;;10.00;98.00;;;;;;5090403;28;20035;-74
2021/03/28 13:29:18;;;;;;;13.38;3.67;;;10.00;98.40;;;;;;5091711;28;20043;-74
2021/03/28 13:31:51;;;;;;;16.65;3.00;;;10.00;98.20;;;;;;5085963;28;20052;-74
2021/03/28 13:34:25;;;;;;;21.30;4.72;;;10.00;98.30;;;;;;5093985;28;20055;-73
2021/03/28 13:37:15;;;;;;;13.48;2.55;;;10.00;98.50;;;;;;5094085;28;20040;-74
2021/03/28 13:40:24;;;;;;;15.93;3.60;;;10.00;98.40;;;;;;5094305;28;20549;-74
2021/03/28 13:42:55;;;;;;;14.73;3.42;;;10.00;98.40;;;;;;5090684;28;20047;-74
2021/03/28 13:45:21;;;;;;;11.10;2.60;;;10.00;98.40;;;;;;5092502;28;20437;-74
2021/03/28 13:47:48;;;;;;;13.48;2.60;;;9.90;98.40;;;;;;5093078;28;20040;-75
2021/03/28 13:50:49;;;;;;;15.10;2.95;;;10.00;98.40;;;;;;5098927;28;20056;-74
2021/03/28 13:53:17;;;;;;;17.35;2.90;;;9.90;98.20;;;;;;5094260;28;20441;-74
2021/03/28 13:55:49;;;;;;;15.52;3.70;;;9.90;98.50;;;;;;5089437;28;20064;-74
2021/03/28 13:58:27;;;;;;;14.98;2.17;;;10.00;98.50;;;;;;5095999;28;20036;-74
2021/03/28 14:01:15;;;;;;;14.05;3.20;;;10.00;98.30;;;;;;5097734;28;20032;-74
2021/03/28 14:03:42;;;;;;;11.85;3.40;;;10.00;98.20;;;;;;5093245;28;20071;-74
2021/03/28 14:06:25;;;;;;;15.73;2.20;;;10.00;98.20;;;;;;5091975;28;20035;-74
2021/03/28 14:08:57;;;;;;;14.85;2.80;;;10.00;98.20;;;;;;5091629;28;20828;-74
2021/03/28 14:11:27;;;;;;;15.32;2.58;;;10.00;97.90;;;;;;5092446;28;20100;-74
2021/03/28 14:14:17;;;;;;;7.95;2.25;;;10.10;98.20;;;;;;5089350;28;21166;-74
2021/03/28 14:16:44;;;;;;;16.52;2.38;;;10.00;98.40;;;;;;5087088;28;20040;-74
2021/03/28 14:19:21;;;;;;;13.65;2.42;;;10.00;98.40;;;;;;5088735;28;20044;-74
2021/03/28 14:21:48;;;;;;;13.63;2.72;;;10.00;98.50;;;;;;5090707;28;20044;-74